Tokyo, Japan
Current Conditions -  °F | °C
As of 5:30 PM on Friday 21 Nov 2014 (Local Time) from RJTT Reporting Station
Broken Clouds Broken Clouds  
Wind Chill: 15°   Ceiling: Unl
Heat Index: 15°   Visibility: 6mi
Dew Point: 11°   Wind: 9mph
Humidity: 77%   Direction: 40°NE
Pressure: 30.27"   Gusts: NA
Location:  35.67°N, 139.77°E
Report Text: RJTT 210830Z 04008KT 9999 FEW025 SCT040 BKN/// 15/11 Q1025 NOSIG RMK 1CU025 3SC040 A3027
Loading
Personal Weather Stations






























Interactive Weather Map New forecast layout! Learn more

10-Day Weather Forecast

Advertisements
Track Severe Weather on mobile